createdAt,value
2019-03-26T00:00:33.887Z,73.70
2019-03-26T00:03:07.787Z,74.20
2019-03-26T00:05:41.409Z,73.90
2019-03-26T00:08:24.410Z,73.70
2019-03-26T00:10:59.335Z,74.60
2019-03-26T00:13:32.567Z,74.10
2019-03-26T00:16:06.477Z,74.10
2019-03-26T00:21:34.097Z,74.00
2019-03-26T00:24:08.052Z,73.80
2019-03-26T00:27:17.849Z,74.20
2019-03-26T00:29:51.915Z,74.00
2019-03-26T00:32:25.496Z,74.20
2019-03-26T00:35:09.632Z,74.20
2019-03-26T00:37:54.312Z,74.00
2019-03-26T00:40:28.519Z,73.80
2019-03-26T00:43:02.348Z,74.00
2019-03-26T00:45:37.363Z,74.10
2019-03-26T00:48:11.436Z,74.30
2019-03-26T00:50:45.983Z,74.10
2019-03-26T00:53:20.374Z,74.00
2019-03-26T00:55:53.860Z,73.90
2019-03-26T00:58:27.625Z,73.90
2019-03-26T01:01:01.152Z,74.00
2019-03-26T01:03:35.490Z,73.90
2019-03-26T01:06:09.063Z,73.90
2019-03-26T01:08:42.926Z,73.80
2019-03-26T01:11:16.533Z,74.00
2019-03-26T01:13:49.886Z,74.10
2019-03-26T01:16:23.101Z,74.50
2019-03-26T01:18:56.710Z,74.00
2019-03-26T01:21:30.319Z,74.10
2019-03-26T01:24:04.063Z,74.20
2019-03-26T01:26:37.453Z,74.00
2019-03-26T01:29:11.475Z,74.20
2019-03-26T01:31:44.747Z,74.50
2019-03-26T01:34:18.357Z,74.50
2019-03-26T01:36:51.767Z,74.40
2019-03-26T01:39:25.610Z,74.20
2019-03-26T01:41:58.943Z,74.40
2019-03-26T01:44:32.492Z,74.30
2019-03-26T01:47:06.052Z,74.40
2019-03-26T01:49:39.850Z,74.20
2019-03-26T01:52:13.362Z,74.40
2019-03-26T01:54:46.815Z,74.30
2019-03-26T01:57:22.606Z,74.00
2019-03-26T01:59:55.849Z,74.30
2019-03-26T02:02:32.296Z,74.30
2019-03-26T02:05:06.551Z,74.20
2019-03-26T02:07:39.997Z,74.10
2019-03-26T02:10:34.109Z,73.80
2019-03-26T02:16:10.671Z,74.60
2019-03-26T02:18:45.416Z,73.30
2019-03-26T02:21:20.425Z,73.30
2019-03-26T02:23:54.218Z,73.30
2019-03-26T02:26:32.436Z,73.00
2019-03-26T02:29:06.589Z,73.10
2019-03-26T02:31:43.356Z,73.20
2019-03-26T02:34:19.301Z,73.30
2019-03-26T02:36:52.758Z,72.90
2019-03-26T02:39:26.442Z,72.80
2019-03-26T02:42:12.231Z,73.10
2019-03-26T02:44:39.028Z,72.60
2019-03-26T02:47:12.851Z,72.50
2019-03-26T02:49:48.978Z,72.30
2019-03-26T02:52:22.938Z,72.40
2019-03-26T02:54:56.338Z,72.30
2019-03-26T02:57:30.093Z,72.40
2019-03-26T03:00:04.369Z,72.20
2019-03-26T03:02:38.102Z,72.10
2019-03-26T03:05:11.531Z,72.20
2019-03-26T03:07:44.865Z,72.10
2019-03-26T03:10:18.356Z,72.00
2019-03-26T03:12:53.425Z,72.00
2019-03-26T03:15:27.755Z,72.00
2019-03-26T03:18:01.384Z,71.50
2019-03-26T03:20:34.599Z,71.30
2019-03-26T03:23:08.329Z,72.10
2019-03-26T03:25:41.672Z,72.00
2019-03-26T03:28:19.182Z,71.80
2019-03-26T03:30:53.516Z,69.90
2019-03-26T03:33:30.472Z,71.50
2019-03-26T03:36:02.514Z,71.50
2019-03-26T03:38:35.815Z,71.40
2019-03-26T03:41:42.143Z,71.40
2019-03-26T03:47:31.416Z,71.40
2019-03-26T03:53:39.342Z,71.20
2019-03-26T03:57:00.967Z,71.50
2019-03-26T04:12:50.368Z,71.10
2019-03-26T04:16:14.517Z,71.30
2019-03-26T04:21:46.182Z,70.80
2019-03-26T04:25:10.860Z,70.20
2019-03-26T04:27:10.395Z,69.90
2019-03-26T04:29:45.549Z,69.70
2019-03-26T04:32:19.162Z,69.60
2019-03-26T04:35:19.539Z,69.50
2019-03-26T04:37:57.423Z,67.30
2019-03-26T04:40:32.136Z,69.70
2019-03-26T04:43:09.419Z,69.60
2019-03-26T04:45:43.694Z,69.30
2019-03-26T04:48:18.519Z,69.00
2019-03-26T04:51:02.281Z,69.40
2019-03-26T04:53:34.087Z,69.20
2019-03-26T04:56:07.756Z,69.00
2019-03-26T04:58:44.039Z,69.50
2019-03-26T05:01:17.560Z,69.50
2019-03-26T05:03:51.038Z,69.40
2019-03-26T05:06:37.220Z,69.70
2019-03-26T05:08:59.957Z,69.80
2019-03-26T05:12:25.546Z,69.80
2019-03-26T05:15:16.961Z,70.00
2019-03-26T05:17:51.963Z,69.80
2019-03-26T05:20:29.463Z,69.60
2019-03-26T05:23:03.303Z,69.90
2019-03-26T05:25:37.644Z,70.00
2019-03-26T05:28:11.289Z,69.90
2019-03-26T05:30:58.487Z,69.10
2019-03-26T05:33:37.229Z,70.00
2019-03-26T05:36:09.127Z,70.00
2019-03-26T05:38:42.452Z,69.90
2019-03-26T05:41:18.884Z,69.90
2019-03-26T05:43:53.416Z,69.90
2019-03-26T05:46:33.905Z,70.00
2019-03-26T05:49:07.209Z,70.00
2019-03-26T05:51:41.750Z,69.90
2019-03-26T05:54:16.380Z,69.70
2019-03-26T05:56:50.090Z,68.10
2019-03-26T05:59:23.289Z,68.00
2019-03-26T06:02:14.200Z,69.30
2019-03-26T06:04:40.920Z,69.40
2019-03-26T06:07:25.302Z,68.80
2019-03-26T06:09:59.473Z,68.60
2019-03-26T06:12:36.994Z,66.60
2019-03-26T06:15:22.341Z,66.60
2019-03-26T06:17:57.762Z,67.80
2019-03-26T06:20:35.563Z,66.60
2019-03-26T06:23:09.092Z,67.20
2019-03-26T06:25:43.790Z,64.70
2019-03-26T06:28:20.073Z,67.50
2019-03-26T06:30:54.718Z,67.80
2019-03-26T06:33:30.128Z,64.80
2019-03-26T06:36:04.251Z,64.90
2019-03-26T06:38:38.467Z,63.90
2019-03-26T06:41:12.068Z,67.10
2019-03-26T06:43:49.490Z,66.80
2019-03-26T06:46:23.809Z,65.60
2019-03-26T06:48:58.109Z,65.60
2019-03-26T06:51:35.378Z,67.30
2019-03-26T06:54:10.024Z,64.40
2019-03-26T06:56:43.898Z,64.40
2019-03-26T06:59:17.393Z,66.00
2019-03-26T07:01:51.635Z,66.70
2019-03-26T07:04:25.379Z,67.40
2019-03-26T07:06:59.153Z,67.60
2019-03-26T07:09:32.795Z,67.40
2019-03-26T07:12:07.792Z,65.10
2019-03-26T07:14:52.465Z,67.20
2019-03-26T07:17:27.567Z,67.20
2019-03-26T07:20:02.141Z,65.30
2019-03-26T07:22:36.984Z,64.40
2019-03-26T07:25:12.025Z,68.10
2019-03-26T07:27:46.612Z,64.30
2019-03-26T07:30:39.739Z,66.80
2019-03-26T07:33:13.449Z,66.70
2019-03-26T07:35:50.802Z,64.50
2019-03-26T07:38:27.536Z,65.90
2019-03-26T07:41:00.859Z,64.90
2019-03-26T07:43:34.587Z,66.80
2019-03-26T07:46:08.270Z,65.90
2019-03-26T07:48:43.379Z,64.60
2019-03-26T07:51:16.599Z,65.50
2019-03-26T07:53:50.374Z,65.70
2019-03-26T07:56:23.663Z,66.40
2019-03-26T07:58:57.108Z,65.70
2019-03-26T08:01:30.361Z,65.10
2019-03-26T08:04:04.293Z,63.90
2019-03-26T08:06:37.806Z,64.40
2019-03-26T08:09:11.575Z,64.90
2019-03-26T08:11:44.857Z,61.90
2019-03-26T08:14:18.260Z,63.60
2019-03-26T08:16:51.521Z,65.30
2019-03-26T08:19:25.384Z,63.30
2019-03-26T08:21:58.541Z,63.00
2019-03-26T08:24:32.175Z,64.30
2019-03-26T08:27:05.402Z,65.80
2019-03-26T08:29:40.885Z,65.10
2019-03-26T08:32:14.396Z,64.00
2019-03-26T08:34:48.062Z,64.30
2019-03-26T08:37:21.775Z,66.20
2019-03-26T08:39:56.149Z,66.20
2019-03-26T08:42:30.039Z,66.20
2019-03-26T08:45:03.596Z,66.60
2019-03-26T08:47:37.383Z,65.80
2019-03-26T08:50:11.225Z,66.80
2019-03-26T08:52:44.668Z,66.80
2019-03-26T08:55:19.789Z,66.10
2019-03-26T08:57:53.246Z,67.10
2019-03-26T09:00:32.068Z,66.40
2019-03-26T09:03:04.491Z,66.90
2019-03-26T09:05:38.297Z,67.30
2019-03-26T09:08:24.490Z,67.00
2019-03-26T09:10:51.705Z,67.10
2019-03-26T09:13:21.170Z,67.30
2019-03-26T09:15:54.656Z,67.10
2019-03-26T09:18:27.859Z,67.00
2019-03-26T09:21:01.833Z,67.50
2019-03-26T09:23:35.034Z,67.90
2019-03-26T09:26:08.524Z,67.90
2019-03-26T09:28:41.762Z,68.00
2019-03-26T09:31:18.990Z,68.10
2019-03-26T09:33:52.327Z,68.00
2019-03-26T09:36:26.055Z,67.90
2019-03-26T09:38:59.641Z,67.90
2019-03-26T09:41:33.505Z,67.90
2019-03-26T09:44:06.767Z,68.10
2019-03-26T09:46:40.490Z,68.10
2019-03-26T09:49:16.468Z,68.60
2019-03-26T09:51:48.732Z,68.60
2019-03-26T09:54:22.166Z,68.40
2019-03-26T09:56:55.785Z,68.40
2019-03-26T09:59:29.602Z,68.90
2019-03-26T10:02:03.450Z,68.70
2019-03-26T10:04:36.793Z,69.30
2019-03-26T10:07:20.733Z,68.60
2019-03-26T10:09:45.004Z,68.60
2019-03-26T10:12:18.864Z,69.30
2019-03-26T10:14:52.319Z,68.90
2019-03-26T10:17:25.885Z,69.90
2019-03-26T10:19:59.256Z,69.10
2019-03-26T10:22:32.960Z,68.90
2019-03-26T10:25:28.858Z,69.00
2019-03-26T10:27:53.058Z,69.70
2019-03-26T10:30:38.468Z,69.20
2019-03-26T10:33:12.103Z,70.20
2019-03-26T10:38:40.995Z,69.20
2019-03-26T10:41:14.744Z,69.20
2019-03-26T10:43:48.080Z,69.50
2019-03-26T10:46:22.717Z,69.50
2019-03-26T10:48:56.120Z,69.40
2019-03-26T10:51:30.319Z,70.00
2019-03-26T10:54:05.219Z,70.40
2019-03-26T10:56:38.392Z,70.00
2019-03-26T10:59:11.736Z,70.20
2019-03-26T11:01:45.888Z,70.20
2019-03-26T11:04:22.117Z,70.50
2019-03-26T11:06:56.033Z,70.60
2019-03-26T11:09:30.223Z,70.60
2019-03-26T11:12:06.662Z,71.20
2019-03-26T11:14:40.088Z,70.80
2019-03-26T11:17:16.659Z,70.60
2019-03-26T11:19:53.051Z,70.50
2019-03-26T11:22:27.289Z,70.60
2019-03-26T11:25:03.470Z,70.60
2019-03-26T11:27:37.609Z,71.80
2019-03-26T11:30:11.489Z,71.50
2019-03-26T11:32:45.503Z,71.60
2019-03-26T11:35:19.102Z,71.50
2019-03-26T11:37:59.854Z,71.20
2019-03-26T11:40:33.955Z,71.50
2019-03-26T11:43:07.725Z,71.50
2019-03-26T11:45:42.119Z,71.50
2019-03-26T11:48:21.547Z,71.20
2019-03-26T11:50:55.868Z,71.30
2019-03-26T11:53:29.593Z,71.30
2019-03-26T11:56:05.482Z,71.20
2019-03-26T11:58:39.845Z,71.20
2019-03-26T12:01:13.392Z,71.60
2019-03-26T12:03:47.053Z,71.40
2019-03-26T12:06:21.071Z,71.80
2019-03-26T12:08:54.492Z,71.30
2019-03-26T12:11:27.909Z,71.20
2019-03-26T12:14:01.381Z,71.30
2019-03-26T12:16:35.081Z,71.40
2019-03-26T12:19:08.410Z,71.90
2019-03-26T12:21:55.810Z,71.60
2019-03-26T12:24:32.585Z,71.40
2019-03-26T12:27:11.101Z,71.30
2019-03-26T12:29:47.019Z,71.30
2019-03-26T12:32:23.941Z,71.50
2019-03-26T12:34:57.878Z,72.70
2019-03-26T12:37:35.788Z,72.90
2019-03-26T12:40:18.307Z,72.80
2019-03-26T12:42:56.853Z,72.50
2019-03-26T12:45:30.145Z,72.90
2019-03-26T12:48:10.598Z,72.30
2019-03-26T12:50:46.419Z,73.70
2019-03-26T12:53:21.382Z,72.80
2019-03-26T12:55:55.562Z,74.00
2019-03-26T12:58:36.073Z,72.40
2019-03-26T13:01:06.563Z,72.60
2019-03-26T13:03:40.354Z,72.00
2019-03-26T13:06:17.616Z,72.10
2019-03-26T13:08:51.335Z,72.60
2019-03-26T13:11:28.848Z,71.90
2019-03-26T13:13:59.969Z,72.40
2019-03-26T13:16:33.382Z,72.40
2019-03-26T13:19:06.969Z,72.60
2019-03-26T13:21:41.756Z,72.00
2019-03-26T13:24:15.344Z,71.90
2019-03-26T13:26:49.268Z,72.10
2019-03-26T13:29:27.021Z,73.00
2019-03-26T13:32:01.013Z,72.80
2019-03-26T13:34:34.755Z,72.20
2019-03-26T13:37:10.079Z,72.10
2019-03-26T13:39:44.040Z,71.90
2019-03-26T13:42:17.943Z,72.30
2019-03-26T13:44:53.104Z,72.00
2019-03-26T13:47:27.688Z,71.80
2019-03-26T13:50:02.016Z,72.70
2019-03-26T13:52:35.448Z,72.40
2019-03-26T13:55:12.657Z,72.00
2019-03-26T13:57:46.454Z,72.00
2019-03-26T14:00:22.223Z,72.90
2019-03-26T14:02:56.016Z,73.20
2019-03-26T14:05:30.057Z,72.50
2019-03-26T14:08:03.290Z,73.00
2019-03-26T14:10:41.048Z,72.90
2019-03-26T14:13:11.627Z,73.40
2019-03-26T14:15:55.266Z,73.40
2019-03-26T14:18:28.865Z,73.70
2019-03-26T14:21:02.539Z,74.30
2019-03-26T14:23:36.324Z,74.50
2019-03-26T14:26:10.115Z,75.00
2019-03-26T14:28:43.500Z,74.90
2019-03-26T14:31:17.059Z,75.30
2019-03-26T14:33:50.307Z,75.50
2019-03-26T14:36:24.586Z,75.50
2019-03-26T14:38:58.081Z,75.50
2019-03-26T14:41:31.722Z,76.00
2019-03-26T14:44:05.537Z,75.70
2019-03-26T14:46:39.505Z,76.00
2019-03-26T14:49:13.573Z,76.30
2019-03-26T14:51:47.495Z,76.20
2019-03-26T14:54:24.702Z,76.00
2019-03-26T14:56:59.033Z,76.30
2019-03-26T14:59:34.122Z,76.20
2019-03-26T15:02:07.750Z,76.20
2019-03-26T15:04:41.349Z,76.20
2019-03-26T15:07:16.980Z,76.30
2019-03-26T15:09:51.165Z,76.50
2019-03-26T15:12:24.694Z,76.10
2019-03-26T15:14:58.345Z,76.30
2019-03-26T15:17:33.150Z,76.60
2019-03-26T15:20:08.866Z,76.90
2019-03-26T15:22:42.177Z,76.80
2019-03-26T15:25:17.433Z,77.20
2019-03-26T15:27:50.805Z,77.20
2019-03-26T15:30:24.395Z,77.30
2019-03-26T15:32:57.955Z,77.30
2019-03-26T15:35:31.638Z,77.20
2019-03-26T15:38:10.056Z,77.20
2019-03-26T15:40:47.099Z,77.20
2019-03-26T15:43:20.678Z,77.60
2019-03-26T15:45:57.300Z,77.40
2019-03-26T15:48:40.833Z,77.40
2019-03-26T15:51:15.346Z,77.50
2019-03-26T15:53:54.398Z,77.40
2019-03-26T15:56:28.247Z,77.50
2019-03-26T15:59:13.576Z,77.40
2019-03-26T16:01:54.263Z,77.50
2019-03-26T16:04:32.820Z,77.30
2019-03-26T16:07:04.755Z,77.60
2019-03-26T16:09:39.489Z,77.50
2019-03-26T16:12:13.678Z,77.70
2019-03-26T16:14:47.355Z,77.40
2019-03-26T16:17:23.880Z,77.70
2019-03-26T16:20:05.625Z,77.80
2019-03-26T16:22:40.821Z,77.80
2019-03-26T16:28:56.080Z,77.70
2019-03-26T16:31:36.474Z,77.70
2019-03-26T16:34:10.509Z,77.60
2019-03-26T16:36:44.023Z,77.60
2019-03-26T16:39:17.707Z,77.60
2019-03-26T16:41:51.987Z,77.80
2019-03-26T16:44:25.747Z,77.60
2019-03-26T16:46:59.429Z,77.60
2019-03-26T16:49:33.472Z,77.80
2019-03-26T16:52:09.670Z,77.60
2019-03-26T16:54:43.542Z,77.60
2019-03-26T16:57:16.914Z,77.60
2019-03-26T16:59:53.836Z,78.20
2019-03-26T17:02:27.117Z,77.70
2019-03-26T17:05:00.804Z,77.80
2019-03-26T17:07:34.117Z,77.70
2019-03-26T17:10:09.454Z,77.80
2019-03-26T17:12:42.928Z,77.80
2019-03-26T17:15:16.950Z,77.40
2019-03-26T17:17:50.353Z,77.60
2019-03-26T17:20:31.942Z,77.40
2019-03-26T17:23:06.610Z,77.40
2019-03-26T17:25:40.250Z,77.40
2019-03-26T17:28:13.945Z,77.50
2019-03-26T17:30:47.736Z,77.00
2019-03-26T17:33:22.214Z,76.80
2019-03-26T17:35:55.568Z,76.80
2019-03-26T17:38:28.774Z,76.60
2019-03-26T17:41:02.222Z,76.20
2019-03-26T17:43:36.463Z,76.30
2019-03-26T17:46:09.757Z,76.40
2019-03-26T17:48:43.401Z,76.50
2019-03-26T17:51:17.096Z,76.40
2019-03-26T17:53:51.409Z,76.20
2019-03-26T17:56:25.960Z,76.60
2019-03-26T17:58:59.777Z,76.70
2019-03-26T18:01:33.500Z,76.60
2019-03-26T18:04:07.250Z,76.30
2019-03-26T18:06:40.864Z,76.40
2019-03-26T18:09:14.675Z,76.10
2019-03-26T18:11:48.887Z,76.30
2019-03-26T18:14:22.533Z,76.60
2019-03-26T18:16:56.380Z,76.50
2019-03-26T18:19:38.218Z,76.20
2019-03-26T18:22:15.349Z,76.20
2019-03-26T18:24:48.780Z,76.30
2019-03-26T18:27:25.873Z,76.40
2019-03-26T18:30:00.950Z,76.20
2019-03-26T18:32:36.451Z,76.40
2019-03-26T18:35:10.268Z,76.30
2019-03-26T18:37:43.556Z,76.20
2019-03-26T18:40:17.417Z,76.30
2019-03-26T18:42:51.749Z,76.10
2019-03-26T18:45:25.629Z,76.40
2019-03-26T18:47:59.646Z,76.30
2019-03-26T18:50:32.993Z,76.40
2019-03-26T18:53:06.571Z,76.20
2019-03-26T18:55:43.334Z,76.10
2019-03-26T18:58:16.706Z,76.20
2019-03-26T19:00:50.413Z,76.00
2019-03-26T19:03:23.705Z,76.20
2019-03-26T19:05:57.409Z,76.00
2019-03-26T19:08:31.703Z,76.20
2019-03-26T19:11:05.564Z,76.40
2019-03-26T19:13:38.808Z,76.20
2019-03-26T19:16:12.172Z,76.30
2019-03-26T19:18:45.399Z,76.20
2019-03-26T19:21:19.427Z,76.20
2019-03-26T19:24:03.385Z,76.40
2019-03-26T19:26:28.313Z,76.00
2019-03-26T19:29:02.114Z,76.30
2019-03-26T19:31:36.422Z,76.20
2019-03-26T19:34:09.729Z,76.50
2019-03-26T19:36:43.062Z,76.20
2019-03-26T19:39:17.279Z,76.30
2019-03-26T19:41:50.672Z,76.20
2019-03-26T19:44:23.972Z,76.20
2019-03-26T19:46:58.060Z,76.50
2019-03-26T19:49:31.384Z,76.60
2019-03-26T19:52:05.202Z,76.20
2019-03-26T19:54:38.584Z,76.40
2019-03-26T19:57:12.519Z,76.50
2019-03-26T19:59:45.689Z,76.60
2019-03-26T20:02:19.511Z,76.80
2019-03-26T20:04:52.683Z,76.40
2019-03-26T20:07:26.638Z,76.40
2019-03-26T20:10:00.564Z,76.50
2019-03-26T20:12:35.370Z,76.40
2019-03-26T20:15:10.771Z,76.60
2019-03-26T20:17:44.186Z,76.90
2019-03-26T20:20:18.298Z,76.70
2019-03-26T20:22:54.501Z,76.80
2019-03-26T20:25:28.376Z,76.60
2019-03-26T20:28:02.070Z,76.90
2019-03-26T20:30:35.380Z,76.90
2019-03-26T20:33:09.113Z,76.80
2019-03-26T20:35:42.393Z,76.90
2019-03-26T20:38:16.153Z,76.80
2019-03-26T20:40:50.031Z,76.70
2019-03-26T20:43:36.801Z,76.80
2019-03-26T20:45:59.710Z,76.70
2019-03-26T20:48:33.191Z,76.50
2019-03-26T20:51:06.542Z,76.60
2019-03-26T20:53:40.633Z,76.70
2019-03-26T20:56:15.488Z,76.80
2019-03-26T20:58:49.454Z,76.80
2019-03-26T21:01:22.869Z,76.70
2019-03-26T21:03:56.320Z,76.90
2019-03-26T21:06:29.758Z,77.20
2019-03-26T21:09:03.180Z,76.70
2019-03-26T21:11:37.985Z,76.70
2019-03-26T21:14:12.032Z,77.20
2019-03-26T21:16:45.476Z,78.00
2019-03-26T21:19:19.001Z,77.40
2019-03-26T21:21:53.098Z,77.40
2019-03-26T21:24:26.967Z,77.20
2019-03-26T21:27:01.236Z,77.30
2019-03-26T21:29:35.113Z,77.30
2019-03-26T21:32:08.469Z,77.30
2019-03-26T21:34:43.418Z,78.00
2019-03-26T21:37:16.772Z,77.30
2019-03-26T21:39:50.546Z,77.40
2019-03-26T21:42:23.790Z,77.70
2019-03-26T21:44:57.786Z,77.40
2019-03-26T21:47:30.957Z,77.40
2019-03-26T21:50:05.067Z,77.40
2019-03-26T21:52:40.417Z,77.60
2019-03-26T21:55:14.473Z,77.60
2019-03-26T21:57:49.784Z,77.40
2019-03-26T22:00:23.564Z,77.60
2019-03-26T22:02:57.052Z,77.80
2019-03-26T22:05:30.696Z,77.90
2019-03-26T22:08:04.564Z,77.80
2019-03-26T22:10:37.973Z,77.40
2019-03-26T22:13:11.684Z,77.50
2019-03-26T22:15:44.897Z,77.30
2019-03-26T22:18:18.819Z,77.60
2019-03-26T22:20:52.011Z,77.70
2019-03-26T22:23:25.707Z,77.40
2019-03-26T22:25:58.895Z,77.50
2019-03-26T22:28:32.217Z,77.50
2019-03-26T22:31:05.405Z,77.30
2019-03-26T22:33:39.216Z,77.20
2019-03-26T22:36:12.408Z,77.40
2019-03-26T22:38:46.020Z,77.50
2019-03-26T22:41:19.199Z,77.60
2019-03-26T22:43:55.094Z,77.90
2019-03-26T22:46:27.979Z,77.50
2019-03-26T22:49:01.852Z,77.70
2019-03-26T22:51:35.101Z,77.80
2019-03-26T22:54:09.049Z,77.90
2019-03-26T22:56:42.258Z,77.80
2019-03-26T22:59:15.558Z,77.80
2019-03-26T23:01:48.840Z,78.10
2019-03-26T23:04:22.914Z,77.90
2019-03-26T23:06:56.320Z,78.00
2019-03-26T23:09:29.901Z,78.00
2019-03-26T23:12:03.252Z,77.60
2019-03-26T23:14:45.006Z,77.80
2019-03-26T23:17:12.677Z,78.00
2019-03-26T23:19:46.527Z,78.20
2019-03-26T23:22:21.285Z,77.80
2019-03-26T23:24:56.418Z,78.00
2019-03-26T23:27:29.794Z,77.60
2019-03-26T23:30:03.226Z,77.60
2019-03-26T23:32:36.532Z,77.80
2019-03-26T23:35:10.993Z,77.80
2019-03-26T23:37:44.477Z,77.90
2019-03-26T23:40:18.294Z,77.90
2019-03-26T23:42:51.681Z,78.10
2019-03-26T23:45:25.707Z,77.90
2019-03-26T23:47:58.972Z,78.10
2019-03-26T23:50:32.933Z,78.00
2019-03-26T23:53:06.185Z,78.10
2019-03-26T23:55:40.996Z,78.10
2019-03-26T23:58:14.343Z,78.30
